Latest Weather Observations for Albury

IDN60801

Issued at 1:05 am EST Monday 27 June 2016 (issued every 30 minutes, with the page automatically refreshed every 10 minutes)

About weather observations | Map of weather stations | Latest weather observations for NSW | Other Formats
Station Details ID: 072160 Name: ALBURY AIRPORT AWS Lat: -36.07 Lon: 146.95 Height: 163.5 m
Data from the previous 72 hours. | See also: Recent months at Albury
Date/Time
EST
Temp
°C
App
Temp
°C
Dew
Point
°C
Rel
Hum
%
Delta-T
°C
Wind Press
QNH
hPa
Press
MSL
hPa
Rain since
9am
mm
Dir  Spd
km/h
Gust
km/h
Spd
kts
Gust
kts
27/01:00am 4.0 2.3 3.9 99 0.0 NNE 2 7 1 4 1017.7 1018.0 0.2
27/12:30am 3.9 2.5 3.8 99 0.0 CALM 0 0 0 0 1017.7 1018.0 0.2
27/12:00am 3.7 2.3 3.6 99 0.0 CALM 0 0 0 0 1017.8 1018.1 0.2
 
Date/Time
EST
Temp
°C
App
Temp
°C
Dew
Point
°C
Rel
Hum
%
Delta-T
°C
Wind Press
QNH
hPa
Press
MSL
hPa
Rain since
9am
mm
Dir  Spd
km/h
Gust
km/h
Spd
kts
Gust
kts
26/11:30pm 3.8 2.4 3.7 99 0.0 CALM 0 0 0 0 1017.9 1018.2 0.2
26/11:00pm 3.7 2.3 3.6 99 0.0 CALM 0 0 0 0 1017.7 1018.0 0.2
26/10:30pm 4.2 2.9 4.1 99 0.0 CALM 0 0 0 0 1017.8 1018.1 0.2
26/10:00pm 4.5 3.2 4.2 98 0.1 CALM 0 0 0 0 1017.8 1018.1 0.2
26/09:30pm 4.4 3.1 4.1 98 0.1 CALM 0 0 0 0 1017.8 1018.1 0.2
26/09:00pm 4.3 1.8 4.0 98 0.1 WNW 6 6 3 3 1017.9 1018.2 0.2
26/08:30pm 4.6 3.3 4.2 97 0.2 CALM 0 0 0 0 1018.0 1018.3 0.2
26/08:00pm 4.5 3.1 3.8 95 0.3 CALM 0 0 0 0 1017.9 1018.2 0.2
26/07:30pm 4.8 3.5 4.1 95 0.3 CALM 0 0 0 0 1018.1 1018.4 0.2
26/07:00pm 4.8 3.5 3.9 94 0.4 CALM 0 0 0 0 1018.2 1018.5 0.2
26/06:30pm 5.1 3.7 3.8 91 0.6 CALM 0 0 0 0 1018.4 1018.7 0.2
26/06:00pm 5.5 4.2 4.2 91 0.6 CALM 0 0 0 0 1018.4 1018.7 0.2
26/05:30pm 5.7 4.3 3.5 86 0.9 CALM 0 0 0 0 1018.3 1018.6 0.2
26/05:00pm 6.5 4.0 4.0 84 1.1 E 6 6 3 3 1018.3 1018.6 0.2
26/04:30pm 6.9 4.4 3.9 81 1.3 ESE 6 7 3 4 1018.5 1018.8 0.2
26/04:00pm 7.2 5.0 3.6 78 1.5 SSW 4 7 2 4 1018.5 1018.8 0.2
26/03:30pm 7.5 5.4 3.7 77 1.6 E 4 6 2 3 1018.6 1018.9 0.2
26/03:00pm 7.4 5.3 4.0 79 1.5 SE 4 6 2 3 1018.7 1019.0 0.2
26/02:30pm 7.5 5.1 4.5 81 1.3 SE 6 9 3 5 1018.7 1019.0 0.2
26/02:00pm 6.9 4.4 3.9 81 1.3 SSE 6 9 3 5 1019.0 1019.3 0.2
26/01:30pm 6.7 4.2 4.0 83 1.2 SW 6 9 3 5 1019.3 1019.6 0.0
26/01:00pm 6.7 4.3 4.4 85 1.0 SE 6 9 3 5 1019.6 1019.9 0.0
26/12:30pm 6.3 3.7 4.1 86 0.9 SE 7 9 4 5 1019.9 1020.2 0.0
26/12:13pm 6.1 3.1 3.9 86 0.9 SE 9 11 5 6 1020.1 1020.4 0.0
26/12:00pm 6.3 3.8 4.0 85 1.0 E 6 7 3 4 1020.5 1020.8 0.0
26/11:30am 5.3 2.9 4.3 93 0.4 ENE 6 9 3 5 1021.2 1021.5 0.0
26/11:00am 4.6 1.6 4.0 96 0.3 ENE 9 15 5 8 1021.7 1022.0 0.0
26/10:30am 4.2 1.6 4.1 99 0.0 N 7 9 4 5 1022.5 1022.8 0.0
26/10:00am 3.9 0.8 3.8 99 0.0 ENE 9 11 5 6 1022.8 1023.1 0.0
26/09:30am 3.3 1.8 3.2 99 0.0 CALM 0 0 0 0 1023.0 1023.3 0.0
26/09:00am 2.3 0.7 2.2 99 0.0 CALM 0 0 0 0 1023.1 1023.4 0.0
26/08:30am 0.9 -1.0 0.8 99 0.0 CALM 0 0 0 0 1023.0 1023.3 0.0
26/08:12am 1.1 -2.1 1.0 99 0.0 NNW 7 7 4 4 1022.7 1023.0 0.0
26/08:11am 1.0 -2.0 0.9 99 0.0 NNW 6 7 3 4 1022.7 1023.0 0.0
26/08:00am 0.4 -1.5 0.3 99 0.0 CALM 0 0 0 0 1022.7 1023.0 0.0
26/07:37am 0.0 -2.8 -0.1 99 0.0 SSW 4 6 2 3 1022.5 1022.8 0.0
26/07:30am 0.2 -2.9 0.1 99 0.0 SW 6 7 3 4 1022.6 1022.9 0.0
26/07:00am 0.0 -2.0 -0.1 99 0.0 CALM 0 0 0 0 1022.4 1022.6 0.0
26/06:30am 0.3 -3.0 0.2 99 0.0 N 7 9 4 5 1021.9 1022.2 0.0
26/06:05am -0.2 -2.2 -0.3 99 0.0 CALM 0 0 0 0 1021.6 1021.9 0.0
26/06:00am -0.3 -2.3 -0.4 99 0.0 CALM 0 0 0 0 1021.5 1021.8 0.0
26/05:30am -1.2 -3.4 -1.3 99 0.0 CALM 0 0 0 0 1021.6 1021.9 0.0
26/05:14am -0.5 -2.6 -0.6 99 0.0 CALM 0 0 0 0 1021.5 1021.8 0.0
26/05:00am -0.5 -2.6 -0.6 99 0.0 CALM 0 0 0 0 1021.6 1021.9 0.0
26/04:50am -0.6 -2.7 -0.7 99 0.0 CALM 0 0 0 0 1021.4 1021.7 0.0
26/04:38am -0.4 -2.5 -0.5 99 0.0 CALM 0 0 0 0 1021.5 1021.8 0.0
26/04:30am -1.0 -3.1 -1.1 99 0.0 CALM 0 0 0 0 1021.6 1021.9 0.0
26/04:00am 0.2 -2.1 0.1 99 0.0 NW 2 6 1 3 1021.7 1022.0 0.0
26/03:30am -0.1 -3.4 -0.2 99 0.0 NNW 7 9 4 5 1021.7 1022.0 0.0
26/03:00am -0.5 -2.6 -0.6 99 0.0 CALM 0 0 0 0 1021.8 1022.1 0.0
26/02:47am -0.2 -2.2 -0.3 99 0.0 CALM 0 0 0 0 1021.9 1022.2 0.0
26/02:30am -0.1 -2.1 -0.2 99 0.0 CALM 0 0 0 0 1022.2 1022.4 0.0
26/02:20am -0.2 -2.3 -0.5 98 0.1 CALM 0 0 0 0 1022.2 1022.4 0.0
26/02:00am 0.3 -1.7 0.2 99 0.0 CALM 0 0 0 0 1022.3 1022.5 0.0
26/01:34am 0.0 -3.1 -0.1 99 0.0 NNW 6 9 3 5 1022.5 1022.8 0.0
26/01:30am 0.4 -2.9 0.3 99 0.0 NNW 7 9 4 5 1022.6 1022.9 0.0
26/01:13am 0.2 -2.2 -0.1 98 0.1 NNE 2 7 1 4 1022.4 1022.6 0.0
26/01:00am 0.5 -1.4 0.4 99 0.0 CALM 0 0 0 0 1022.4 1022.6 0.0
26/12:47am 0.8 -1.1 0.7 99 0.0 CALM 0 0 0 0 1022.5 1022.8 0.0
26/12:30am 0.7 -1.2 0.4 98 0.1 CALM 0 0 0 0 1022.9 1023.2 0.0
26/12:29am 0.7 -1.2 0.4 98 0.1 CALM 0 0 0 0 1022.9 1023.2 0.0
26/12:00am 1.0 -0.9 0.7 98 0.1 CALM 0 0 0 0 1022.7 1023.0 0.0
 
Date/Time
EST
Temp
°C
App
Temp
°C
Dew
Point
°C
Rel
Hum
%
Delta-T
°C
Wind Press
QNH
hPa
Press
MSL
hPa
Rain since
9am
mm
Dir  Spd
km/h
Gust
km/h
Spd
kts
Gust
kts
25/11:30pm 1.4 -1.2 1.1 98 0.1 NNW 4 7 2 4 1022.5 1022.8 0.0
25/11:00pm 1.2 -2.4 0.9 98 0.1 NNW 9 9 5 5 1022.6 1022.9 0.0
25/10:56pm 1.3 -1.9 1.0 98 0.1 NNW 7 9 4 5 1022.6 1022.9 0.0
25/10:37pm 1.2 -1.0 0.9 98 0.1 NE 2 6 1 3 1022.7 1023.0 0.0
25/10:30pm 1.8 -0.7 1.5 98 0.1 NE 4 6 2 3 1022.8 1023.1 0.0
25/10:00pm 1.6 -1.0 1.2 97 0.2 NE 4 6 2 3 1022.7 1023.0 0.0
25/09:30pm 2.2 0.5 1.8 97 0.2 CALM 0 0 0 0 1022.8 1023.1 0.0
25/09:00pm 2.1 0.3 1.4 95 0.3 CALM 0 0 0 0 1022.7 1023.0 0.0
25/08:30pm 2.9 0.8 2.0 94 0.4 NE 2 7 1 4 1022.7 1023.0 0.0
25/08:00pm 3.5 0.7 2.3 92 0.5 NE 6 9 3 5 1022.6 1022.9 0.0
25/07:30pm 3.9 1.2 2.7 92 0.5 W 6 7 3 4 1022.5 1022.8 0.0
25/07:00pm 3.9 0.6 2.3 89 0.6 NNW 9 9 5 5 1022.7 1023.0 0.0
25/06:30pm 5.4 2.6 3.3 86 0.9 NNW 7 9 4 5 1022.5 1022.8 0.0
25/06:00pm 5.3 2.4 2.8 84 1.0 NNW 7 9 4 5 1022.4 1022.6 0.0
25/05:30pm 6.7 3.9 3.0 77 1.6 WNW 7 9 4 5 1022.2 1022.4 0.0
25/05:00pm 7.0 3.0 2.7 74 1.8 W 13 15 7 8 1021.9 1022.2 0.0
25/04:30pm 8.8 4.8 2.8 66 2.6 W 13 19 7 10 1021.8 1022.1 0.0
25/04:00pm 9.6 5.6 2.9 63 2.9 W 13 19 7 10 1021.7 1022.0 0.0
25/03:30pm 9.7 4.5 2.6 61 3.1 W 19 26 10 14 1021.6 1021.9 0.0
25/03:00pm 9.9 4.5 2.7 61 3.1 W 20 28 11 15 1021.6 1021.9 0.0
25/02:30pm 10.1 5.3 2.7 60 3.2 W 17 26 9 14 1021.6 1021.9 0.0
25/02:00pm 10.1 5.5 3.6 64 2.9 WSW 17 22 9 12 1021.7 1022.0 0.0
25/01:30pm 9.2 5.0 3.6 68 2.5 WNW 15 20 8 11 1021.9 1022.2 0.0
25/01:00pm 8.6 4.7 3.6 71 2.2 WNW 13 19 7 10 1022.4 1022.6 0.0
25/12:30pm 8.0 4.5 3.5 73 1.9 SW 11 17 6 9 1022.7 1023.0 0.0
25/12:00pm 7.5 4.6 2.8 72 2.0 SW 7 13 4 7 1022.9 1023.2 0.0
25/11:30am 7.8 5.1 2.5 69 2.2 NNE 6 9 3 5 1023.2 1023.5 0.0
25/11:00am 7.2 5.3 2.9 74 1.8 SE 2 6 1 3 1023.4 1023.7 0.0
25/10:30am 6.4 4.1 2.7 77 1.5 NE 4 7 2 4 1023.3 1023.6 0.0
25/10:00am 5.8 3.4 2.3 78 1.4 N 4 7 2 4 1023.3 1023.6 0.0
25/09:30am 4.7 3.1 2.4 85 0.9 CALM 0 0 0 0 1023.0 1023.3 0.0
25/09:00am 2.8 -0.2 2.1 95 0.3 E 7 9 4 5 1022.6 1022.9 2.6
25/08:30am 1.4 -0.8 1.3 99 0.0 ENE 2 9 1 5 1022.3 1022.5 2.6
25/08:00am 0.3 -1.7 0.2 99 0.0 CALM 0 0 0 0 1021.9 1022.2 2.4
25/07:34am -0.6 -2.7 -0.7 99 0.0 CALM 0 0 0 0 1021.7 1022.0 2.4
25/07:30am -0.8 -2.9 -0.9 99 0.0 CALM 0 0 0 0 1021.6 1021.9 2.4
25/07:04am -0.5 -2.6 -0.8 98 0.1 CALM 0 0 0 0 1021.3 1021.6 2.4
25/07:00am -0.3 -2.4 -0.6 98 0.1 CALM 0 0 0 0 1021.1 1021.4 2.4
25/06:30am 0.0 -3.4 -0.3 98 0.1 ENE 7 9 4 5 1021.0 1021.3 2.4
25/06:00am 0.8 -1.1 0.4 97 0.1 CALM 0 0 0 0 1020.7 1021.0 2.4
25/05:30am 1.0 -2.3 0.4 96 0.2 NW 7 9 4 5 1020.3 1020.6 2.4
25/05:00am 1.0 -2.6 0.3 95 0.3 W 9 13 5 7 1020.0 1020.3 2.4
25/04:30am 1.3 -3.4 0.6 95 0.3 WNW 15 17 8 9 1019.7 1020.0 2.4
25/04:00am 1.6 -2.7 0.7 94 0.3 WNW 13 15 7 8 1019.5 1019.8 2.4
25/03:30am 1.8 -1.8 0.6 92 0.5 WNW 9 11 5 6 1019.3 1019.6 2.4
25/03:00am 2.3 -2.0 1.1 92 0.5 W 13 17 7 9 1019.0 1019.3 2.4
25/02:30am 1.6 -3.1 0.7 94 0.3 W 15 19 8 10 1018.9 1019.2 2.4
25/02:00am 1.9 -1.7 0.7 92 0.5 W 9 13 5 7 1018.9 1019.2 2.4
25/01:30am 2.5 -0.7 0.9 89 0.6 W 7 11 4 6 1018.6 1018.9 2.4
25/01:00am 2.8 -0.3 1.2 89 0.6 W 7 11 4 6 1018.3 1018.6 2.4
25/12:30am 3.0 -0.2 0.9 86 0.8 WSW 7 11 4 6 1018.0 1018.3 2.4
25/12:00am 3.2 -0.3 1.3 87 0.7 WSW 9 17 5 9 1017.5 1017.8 2.4
 
Date/Time
EST
Temp
°C
App
Temp
°C
Dew
Point
°C
Rel
Hum
%
Delta-T
°C
Wind Press
QNH
hPa
Press
MSL
hPa
Rain since
9am
mm
Dir  Spd
km/h
Gust
km/h
Spd
kts
Gust
kts
24/11:30pm 3.2 -0.7 1.3 87 0.7 WSW 11 17 6 9 1017.2 1017.4 2.4
24/11:00pm 4.1 -0.9 1.6 84 1.0 WNW 17 24 9 13 1016.8 1017.0 2.4
24/10:30pm 4.0 -0.2 1.7 85 0.9 WNW 13 17 7 9 1016.3 1016.5 2.4
24/10:00pm 3.6 -1.0 1.6 87 0.8 W 15 19 8 10 1016.0 1016.2 2.4
24/09:30pm 3.9 0.5 1.8 86 0.8 W 9 15 5 8 1015.6 1015.9 2.4
24/09:00pm 4.1 0.0 2.3 88 0.7 W 13 19 7 10 1015.2 1015.5 2.4
24/08:30pm 4.3 -0.2 2.2 86 0.8 W 15 20 8 11 1014.8 1015.1 2.4
24/08:00pm 4.8 0.3 2.3 84 1.0 W 15 20 8 11 1014.1 1014.4 2.4
24/07:30pm 4.9 0.0 2.1 82 1.1 W 17 22 9 12 1013.5 1013.8 2.4
24/07:00pm 5.2 -0.2 2.4 82 1.1 W 20 22 11 12 1013.1 1013.4 2.4
24/06:30pm 5.2 0.0 2.4 82 1.1 W 19 28 10 15 1012.2 1012.4 2.4
24/06:00pm 5.7 1.3 2.7 81 1.2 W 15 22 8 12 1011.6 1011.8 2.4
24/05:30pm 6.1 0.5 3.3 82 1.2 SW 22 35 12 19 1010.9 1011.1 2.4
24/05:00pm 7.0 1.9 4.0 81 1.3 WNW 20 28 11 15 1010.1 1010.3 2.0
24/04:30pm 7.2 1.4 4.3 82 1.3 W 24 37 13 20 1009.2 1009.5 2.0
24/04:00pm 7.7 1.4 3.9 77 1.7 W 26 39 14 21 1008.6 1008.9 1.8
24/03:55pm 7.6 1.5 4.6 81 1.3 W 26 35 14 19 1008.6 1008.9 1.8
24/03:30pm 7.3 2.0 5.0 85 1.0 W 22 30 12 16 1007.9 1008.2 1.0
24/03:00pm 7.5 1.5 5.1 85 1.1 W 26 39 14 21 1007.3 1007.6 0.8
24/02:30pm 6.8 -0.2 4.1 83 1.2 W 30 43 16 23 1006.9 1007.1 0.8
24/02:15pm 6.9 -0.4 4.4 84 1.1 W 32 43 17 23 1006.6 1006.8 0.8
24/02:00pm 7.1 1.0 4.9 86 1.0 W 26 41 14 22 1006.3 1006.5 0.8
24/01:59pm 7.1 1.1 5.3 88 0.8 W 26 41 14 22 1006.3 1006.5 0.8
24/01:36pm 6.8 1.1 4.8 87 0.9 W 24 37 13 20 1006.2 1006.4 0.4
24/01:30pm 7.0 1.7 5.2 88 0.8 W 22 30 12 16 1006.3 1006.5 0.4
24/01:00pm 7.0 1.8 5.3 89 0.8 W 22 32 12 17 1006.1 1006.3 0.4
24/12:30pm 6.8 0.7 5.0 88 0.8 W 26 35 14 19 1005.9 1006.1 0.4
24/12:10pm 7.4 1.3 4.7 83 1.2 W 26 39 14 21 1005.8 1006.0 0.4
24/12:00pm 7.5 1.8 5.0 84 1.1 W 24 32 13 17 1005.8 1006.0 0.4
24/11:50am 6.7 0.5 4.2 84 1.1 W 26 35 14 19 1005.8 1006.0 0.4
24/11:30am 7.4 2.0 4.5 82 1.3 W 22 41 12 22 1005.9 1006.1 0.4
24/11:26am 7.7 2.8 5.0 83 1.2 W 20 30 11 16 1005.9 1006.1 0.4
24/11:08am 7.7 2.9 5.5 86 1.0 WNW 20 30 11 16 1006.0 1006.2 0.4
24/11:00am 6.8 1.1 5.0 88 0.8 WNW 24 32 13 17 1006.1 1006.3 0.4
24/10:30am 7.1 2.9 5.6 90 0.7 W 17 26 9 14 1006.0 1006.2 0.4
24/10:18am 6.8 2.0 5.4 91 0.6 W 20 32 11 17 1005.9 1006.1 0.2
24/10:00am 8.0 2.3 4.8 80 1.4 WNW 24 35 13 19 1005.6 1005.8 0.0
24/09:30am 7.0 0.9 4.7 85 1.0 WNW 26 35 14 19 1005.2 1005.4 0.0
24/09:00am 7.0 0.6 5.0 87 0.9 WNW 28 39 15 21 1004.6 1004.8 4.0
24/08:52am 7.0 0.9 5.0 87 0.9 WNW 26 37 14 20 1004.6 1004.8 4.0
24/08:34am 6.9 1.3 5.5 91 0.6 WNW 24 35 13 19 1004.5 1004.7 4.0
24/08:30am 6.9 0.9 5.4 90 0.7 WNW 26 35 14 19 1004.3 1004.5 4.0
24/08:18am 6.9 0.9 5.5 91 0.6 WNW 26 39 14 21 1004.0 1004.2 4.0
24/08:00am 7.1 1.5 5.6 90 0.7 WNW 24 35 13 19 1004.0 1004.2 4.0
24/07:30am 7.2 2.5 6.0 92 0.5 NW 20 32 11 17 1003.5 1003.7 4.0
24/07:02am 7.2 3.1 6.1 93 0.5 NW 17 28 9 15 1003.3 1003.5 4.0
24/07:00am 7.2 2.7 6.1 93 0.5 NW 19 28 10 15 1003.2 1003.4 4.0
24/06:52am 7.2 3.5 6.3 94 0.4 NW 15 22 8 12 1003.2 1003.4 4.0
24/06:30am 7.3 2.5 5.8 90 0.7 NW 20 30 11 16 1003.1 1003.3 4.0
24/06:00am 7.3 3.2 6.2 93 0.5 NW 17 24 9 13 1002.9 1003.2 4.0
24/05:50am 7.2 3.5 6.3 94 0.4 NW 15 22 8 12 1002.8 1003.1 4.0
24/05:30am 7.2 3.9 6.5 95 0.3 NW 13 19 7 10 1002.7 1003.0 3.8
24/05:01am 7.1 4.2 6.5 96 0.3 NNW 11 17 6 9 1002.8 1003.1 3.6
24/05:00am 7.1 4.2 6.5 96 0.3 NNW 11 17 6 9 1002.8 1003.1 3.6
24/04:40am 7.1 3.8 6.4 95 0.3 NNW 13 17 7 9 1002.9 1003.2 3.4
24/04:30am 7.2 4.6 6.3 94 0.4 N 9 15 5 8 1002.9 1003.2 3.4
24/04:00am 7.0 4.8 6.4 96 0.3 N 7 9 4 5 1002.9 1003.2 3.4
24/03:55am 7.0 4.9 6.6 97 0.2 N 7 9 4 5 1002.9 1003.2 3.4
24/03:30am 6.9 6.1 6.5 97 0.2 CALM 0 0 0 0 1002.8 1003.1 3.2
24/03:00am 6.8 4.6 6.4 97 0.2 WNW 7 9 4 5 1003.1 1003.3 3.0
24/02:30am 6.8 4.6 6.1 95 0.3 NNW 7 11 4 6 1002.8 1003.1 3.0
24/02:00am 6.6 4.0 6.0 96 0.3 N 9 11 5 6 1002.7 1003.0 3.0
24/01:30am 6.8 3.5 6.2 96 0.3 ENE 13 17 7 9 1002.0 1002.2 3.0

Other Formats:

Comma delimited format used in spreadsheet applications
http://www.bom.gov.au/fwo/IDN60801/IDN60801.95896.axf

JavaScript Object Notation format (JSON) in row-major order
http://www.bom.gov.au/fwo/IDN60801/IDN60801.95896.json